Time;durP1;ratioP1;P1;durP2;ratioP2;P2;SDS_P1;SDS_P2;PMS_P1;PMS_P2;Temp;Humidity;BMP_temperature;BMP_pressure;BME280_temperature;BME280_humidity;BME280_pressure;Samples;Min_cycle;Max_cycle;Signal;HPM_P1;HPM_P2
2021/04/03 00:01:04;;;;;;;7.55;5.07;;;;;;;4.95;68.23;95882.72;4972395;28;20102;-53
2021/04/03 00:03:31;;;;;;;8.05;5.22;;;;;;;5.03;67.61;95884.69;4971820;28;20050;-52
2021/04/03 00:05:58;;;;;;;7.80;5.90;;;;;;;4.58;69.33;95873.72;4971609;28;20050;-51
2021/04/03 00:08:26;;;;;;;7.82;5.20;;;;;;;4.69;69.13;95872.47;4970808;28;20061;-51
2021/04/03 00:10:58;;;;;;;8.15;5.15;;;;;;;4.64;69.58;95869.88;4972198;28;20105;-52
2021/04/03 00:13:34;;;;;;;7.72;5.10;;;;;;;4.66;69.71;95878.41;4971948;28;20077;-51
2021/04/03 00:16:04;;;;;;;7.95;5.03;;;;;;;4.52;69.80;95874.91;4969461;28;20058;-52
2021/04/03 00:18:30;;;;;;;9.20;5.30;;;;;;;4.66;69.48;95886.47;4952153;29;20142;-55
2021/04/03 00:20:57;;;;;;;7.78;5.10;;;;;;;4.79;68.97;95883.00;4964661;28;20054;-51
2021/04/03 00:23:23;;;;;;;7.95;5.53;;;;;;;4.54;69.38;95875.41;4971947;28;20047;-54
2021/04/03 00:25:51;;;;;;;8.60;5.65;;;;;;;4.64;69.78;95869.88;4971510;28;20053;-55
2021/04/03 00:28:18;;;;;;;8.55;5.75;;;;;;;4.67;69.39;95861.25;4971732;28;20062;-55
2021/04/03 00:30:44;;;;;;;9.45;6.00;;;;;;;4.42;70.34;95860.63;4971452;28;20062;-51
2021/04/03 00:33:11;;;;;;;8.25;5.47;;;;;;;4.58;69.88;95863.00;4971931;28;20472;-54
2021/04/03 00:35:42;;;;;;;7.63;5.10;;;;;;;4.42;70.12;95860.63;4971215;28;20163;-53
2021/04/03 00:38:09;;;;;;;9.00;6.15;;;;;;;4.08;71.49;95860.09;4962701;28;20063;-52
2021/04/03 00:40:40;;;;;;;10.85;5.93;;;;;;;4.24;71.08;95858.78;4970967;28;20065;-54
2021/04/03 00:43:22;;;;;;;8.25;5.65;;;;;;;4.53;70.27;95855.88;4969791;28;20054;-52
2021/04/03 00:45:48;;;;;;;11.32;6.50;;;;;;;4.14;71.62;95853.59;4971490;28;20118;-52
2021/04/03 00:48:16;;;;;;;9.77;5.93;;;;;;;4.23;71.38;95859.88;4971033;28;20050;-56
2021/04/03 00:50:45;;;;;;;8.77;6.00;;;;;;;4.29;71.12;95849.84;4971121;28;20085;-54
2021/04/03 00:53:14;;;;;;;9.65;5.80;;;;;;;4.43;70.82;95854.16;4970446;28;20082;-54
2021/04/03 00:55:46;;;;;;;8.20;5.70;;;;;;;4.66;69.80;95848.94;4969585;28;20051;-49
2021/04/03 00:58:18;;;;;;;8.88;6.03;;;;;;;4.77;69.71;95854.91;4969977;28;20074;-50
2021/04/03 01:00:48;;;;;;;9.40;6.05;;;;;;;4.40;70.73;95878.06;4971035;28;20400;-49
2021/04/03 01:03:17;;;;;;;8.27;5.75;;;;;;;4.12;71.75;95877.97;4983069;28;20055;-52
2021/04/03 01:05:44;;;;;;;11.30;6.03;;;;;;;4.35;70.82;95880.81;4979469;28;20054;-50
2021/04/03 01:08:11;;;;;;;7.90;5.65;;;;;;;4.20;71.23;95887.25;4970494;28;20105;-51
2021/04/03 01:10:46;;;;;;;9.93;5.85;;;;;;;4.32;70.86;95882.22;4969670;28;20058;-50
2021/04/03 01:13:31;;;;;;;9.77;6.22;;;;;;;4.29;70.89;95882.81;4971529;28;20058;-50
2021/04/03 01:16:13;;;;;;;8.48;5.85;;;;;;;4.60;69.59;95882.28;4964548;28;20047;-51
2021/04/03 01:19:01;;;;;;;9.80;5.93;;;;;;;4.51;69.97;95881.38;4954009;29;20055;-54
2021/04/03 01:21:40;;;;;;;8.75;6.15;;;;;;;4.40;69.63;95888.78;4972313;28;20546;-53
2021/04/03 01:24:35;;;;;;;8.18;5.95;;;;;;;4.36;69.86;95887.78;4974927;28;20039;-54
2021/04/03 01:27:14;;;;;;;9.25;6.18;;;;;;;4.30;69.97;95887.06;4974789;28;20145;-50
2021/04/03 01:30:04;;;;;;;11.38;5.93;;;;;;;4.15;70.88;95898.00;4974651;28;20054;-52
2021/04/03 01:32:56;;;;;;;9.02;5.68;;;;;;;4.06;70.82;95891.72;4958455;28;20059;-55
2021/04/03 01:35:34;;;;;;;9.05;5.93;;;;;;;3.94;70.84;95903.69;4955967;29;20039;-51
2021/04/03 01:38:07;;;;;;;8.05;5.13;;;;;;;3.95;70.88;95901.81;4962600;28;20050;-52
2021/04/03 01:40:38;;;;;;;8.48;5.93;;;;;;;4.03;70.99;95900.34;4974216;28;20058;-52
2021/04/03 01:43:22;;;;;;;9.00;5.90;;;;;;;4.12;70.24;95906.63;4974615;28;20372;-52
2021/04/03 01:45:53;;;;;;;9.32;5.75;;;;;;;4.21;69.92;95913.72;4974692;28;20038;-53
2021/04/03 01:48:22;;;;;;;8.43;5.47;;;;;;;4.00;69.69;95907.09;4976753;28;20058;-56
2021/04/03 01:50:50;;;;;;;9.07;4.80;;;;;;;3.80;69.91;95913.50;4954020;29;20286;-55
2021/04/03 01:53:21;;;;;;;8.40;5.78;;;;;;;3.99;69.60;95924.22;4955300;28;20141;-53
2021/04/03 01:55:53;;;;;;;8.45;4.80;;;;;;;3.72;69.68;95919.53;4961143;28;20042;-55
2021/04/03 01:58:22;;;;;;;8.15;5.25;;;;;;;3.60;70.17;95924.50;4972770;28;20476;-54
2021/04/03 02:00:49;;;;;;;8.98;4.93;;;;;;;3.66;69.68;95918.00;4974571;28;20110;-50
2021/04/03 02:03:17;;;;;;;7.85;5.20;;;;;;;3.69;68.87;95923.56;4973134;28;20050;-54
2021/04/03 02:05:48;;;;;;;7.80;4.97;;;;;;;3.71;69.19;95912.59;4967196;28;20134;-50
2021/04/03 02:08:35;;;;;;;10.68;5.72;;;;;;;3.73;68.57;95924.56;5020548;23;20050;-56
2021/04/03 02:11:23;;;;;;;9.60;5.40;;;;;;;3.56;68.54;95915.47;5013556;28;20058;-53
2021/04/03 02:13:56;;;;;;;10.02;5.70;;;;;;;3.64;67.88;95912.13;5013579;28;20057;-53
2021/04/03 02:16:25;;;;;;;8.82;5.28;;;;;;;3.63;67.38;95910.53;5018507;28;20055;-52
2021/04/03 02:18:53;;;;;;;7.65;4.68;;;;;;;3.50;67.91;95904.03;5031230;28;20057;-54
2021/04/03 02:21:20;;;;;;;8.60;5.70;;;;;;;3.64;67.23;95909.44;5033600;28;20414;-51
2021/04/03 02:23:49;;;;;;;9.48;5.32;;;;;;;3.64;67.53;95917.47;5031502;28;20054;-56
2021/04/03 02:26:16;;;;;;;9.05;5.30;;;;;;;3.61;67.34;95910.84;5012913;28;20467;-51
2021/04/03 02:28:42;;;;;;;10.63;5.22;;;;;;;3.62;67.34;95911.63;5012436;28;20531;-51
2021/04/03 02:31:09;;;;;;;9.23;5.20;;;;;;;3.62;66.82;95900.94;5011754;28;20426;-52
2021/04/03 02:33:39;;;;;;;9.65;5.68;;;;;;;3.51;67.26;95901.06;5011806;28;20061;-54
2021/04/03 02:36:06;;;;;;;8.52;5.35;;;;;;;3.46;66.97;95903.00;5012839;28;20045;-52
2021/04/03 02:38:33;;;;;;;9.95;5.50;;;;;;;3.44;67.23;95910.50;5010843;28;20065;-53
2021/04/03 02:41:07;;;;;;;10.13;5.15;;;;;;;3.42;66.85;95908.13;4996695;28;20049;-52
2021/04/03 02:43:51;;;;;;;9.40;5.55;;;;;;;3.61;65.99;95907.38;5011836;28;20056;-57
2021/04/03 02:46:32;;;;;;;7.95;4.95;;;;;;;3.48;65.65;95908.88;5013290;28;20553;-57
2021/04/03 02:49:07;;;;;;;9.57;5.35;;;;;;;3.58;65.27;95911.41;5011608;28;20409;-57
2021/04/03 02:51:46;;;;;;;7.35;4.50;;;;;;;3.28;65.00;95916.06;5014524;28;20094;-57
2021/04/03 02:54:18;;;;;;;8.68;4.53;;;;;;;3.23;64.02;95915.31;5011745;28;20050;-56
2021/04/03 02:56:48;;;;;;;10.10;4.63;;;;;;;3.14;64.13;95914.34;5013050;28;20061;-54
2021/04/03 02:59:27;;;;;;;8.02;4.72;;;;;;;3.22;64.17;95917.22;5012318;28;20057;-53
2021/04/03 03:01:56;;;;;;;7.38;4.60;;;;;;;3.41;62.81;95916.44;4995312;28;20495;-51
2021/04/03 03:04:26;;;;;;;8.73;4.60;;;;;;;3.38;62.70;95917.00;5013098;28;20050;-53
2021/04/03 03:06:55;;;;;;;12.02;4.38;;;;;;;3.43;62.81;95914.28;5013023;28;20423;-53
2021/04/03 03:09:23;;;;;;;8.32;4.32;;;;;;;3.50;62.00;95922.75;5012661;28;20054;-52
2021/04/03 03:11:55;;;;;;;10.93;4.35;;;;;;;3.46;62.00;95924.41;5011740;28;20054;-51
2021/04/03 03:14:25;;;;;;;5.28;3.65;;;;;;;3.26;62.43;95930.81;5011513;28;20128;-53
2021/04/03 03:16:54;;;;;;;8.65;4.07;;;;;;;3.12;63.28;95924.53;5012542;28;20077;-51
2021/04/03 03:19:24;;;;;;;9.32;4.55;;;;;;;3.16;63.00;95930.91;5012512;28;20070;-57
2021/04/03 03:21:52;;;;;;;9.40;4.45;;;;;;;3.09;63.69;95925.09;5032283;28;20054;-56
2021/04/03 03:24:20;;;;;;;9.27;4.38;;;;;;;3.15;63.50;95929.31;5032550;28;20152;-57
2021/04/03 03:26:47;;;;;;;8.13;4.55;;;;;;;3.13;63.76;95923.47;5031935;28;20603;-55
2021/04/03 03:29:15;;;;;;;9.80;4.30;;;;;;;3.13;63.73;95923.47;5030651;28;20552;-56
2021/04/03 03:31:43;;;;;;;9.80;4.72;;;;;;;3.32;63.41;95923.53;5030946;28;20067;-56
2021/04/03 03:34:14;;;;;;;10.38;4.70;;;;;;;3.41;63.42;95914.59;5027528;28;20058;-56
2021/04/03 03:36:48;;;;;;;8.35;4.38;;;;;;;3.51;62.95;95925.16;5011231;28;20076;-57
2021/04/03 03:39:18;;;;;;;10.23;4.95;;;;;;;3.36;64.15;95929.88;5029544;28;20084;-56
2021/04/03 03:41:46;;;;;;;10.27;5.05;;;;;;;3.57;64.00;95922.38;5031070;28;20058;-55
2021/04/03 03:44:13;;;;;;;9.85;4.90;;;;;;;3.08;62.73;95926.97;5031998;28;20080;-56
2021/04/03 03:46:39;;;;;;;7.53;4.60;;;;;;;3.18;63.77;95931.41;5012468;28;20080;-57
2021/04/03 03:49:06;;;;;;;9.05;4.65;;;;;;;3.31;64.31;95925.38;5012128;28;20184;-58
2021/04/03 03:51:33;;;;;;;9.57;4.90;;;;;;;3.17;64.77;95919.13;5012000;28;20110;-57
2021/04/03 03:54:08;;;;;;;8.10;4.82;;;;;;;3.27;65.23;95927.03;5027415;28;20071;-56
2021/04/03 03:56:35;;;;;;;9.68;4.70;;;;;;;3.17;65.52;95925.28;5011781;28;20412;-57
2021/04/03 03:59:02;;;;;;;10.27;5.32;;;;;;;3.15;65.90;95930.13;5012557;28;20453;-57
2021/04/03 04:01:29;;;;;;;8.90;5.55;;;;;;;3.14;66.25;95923.16;5010696;28;20061;-56
2021/04/03 04:03:56;;;;;;;10.30;5.00;;;;;;;2.93;66.73;95927.94;5025335;28;20053;-56
2021/04/03 04:06:23;;;;;;;11.27;5.82;;;;;;;3.06;66.85;95936.38;5016278;28;20146;-55
2021/04/03 04:08:52;;;;;;;8.52;4.80;;;;;;;3.16;66.23;95928.25;5020243;28;20053;-52
2021/04/03 04:11:21;;;;;;;9.18;5.18;;;;;;;3.07;66.10;95932.63;5011956;28;20056;-55
2021/04/03 04:13:54;;;;;;;9.13;5.38;;;;;;;3.30;65.39;95934.50;5012143;28;20427;-57
2021/04/03 04:16:38;;;;;;;10.60;4.82;;;;;;;3.33;64.62;95928.56;5024471;28;20402;-55
2021/04/03 04:19:07;;;;;;;12.55;5.97;;;;;;;3.36;64.38;95930.69;4994517;28;20066;-56
2021/04/03 04:21:35;;;;;;;8.45;4.72;;;;;;;3.13;65.17;95934.16;5027962;28;20046;-56
2021/04/03 04:24:03;;;;;;;9.30;5.20;;;;;;;3.04;65.00;95933.97;5030011;28;20099;-56
2021/04/03 04:26:31;;;;;;;10.75;5.40;;;;;;;2.89;65.52;95939.47;5026072;28;20454;-57
2021/04/03 04:28:58;;;;;;;7.90;4.70;;;;;;;3.09;64.61;95938.47;5010220;28;20074;-54
2021/04/03 04:31:28;;;;;;;7.65;4.88;;;;;;;3.19;64.80;95941.03;5010428;28;20140;-56
2021/04/03 04:34:03;;;;;;;10.02;4.90;;;;;;;3.12;64.94;95938.72;5011663;28;20045;-54
2021/04/03 04:36:29;;;;;;;11.00;5.38;;;;;;;3.16;65.42;95945.06;5011467;28;20045;-55
2021/04/03 04:39:02;;;;;;;10.13;4.90;;;;;;;3.11;65.92;95957.69;5011077;28;20437;-56
2021/04/03 04:41:31;;;;;;;9.15;5.47;;;;;;;3.18;65.56;95958.94;5011618;28;20405;-54
2021/04/03 04:43:59;;;;;;;12.73;5.45;;;;;;;3.13;65.92;95968.91;5011272;28;20120;-57
2021/04/03 04:46:26;;;;;;;8.02;5.18;;;;;;;3.08;66.13;95956.38;5018097;28;20041;-56
2021/04/03 04:48:56;;;;;;;16.50;5.85;;;;;;;3.03;66.50;95959.91;5009648;28;20400;-55
2021/04/03 04:51:26;;;;;;;10.63;5.68;;;;;;;3.03;65.30;95967.16;5026189;28;20054;-53
2021/04/03 04:54:01;;;;;;;11.65;5.78;;;;;;;3.24;65.59;95965.03;5011541;28;20065;-56
2021/04/03 04:56:32;;;;;;;9.77;5.30;;;;;;;3.12;65.27;95973.47;5010801;28;20046;-53
2021/04/03 04:59:00;;;;;;;13.27;6.57;;;;;;;3.11;65.45;95979.88;5009837;28;20503;-55
2021/04/03 05:01:30;;;;;;;10.15;5.55;;;;;;;3.01;66.65;95975.44;5009857;28;20046;-54
2021/04/03 05:03:57;;;;;;;13.38;5.30;;;;;;;3.07;66.23;95973.50;5009919;28;20045;-54
2021/04/03 05:06:24;;;;;;;10.60;5.03;;;;;;;3.00;66.30;95995.22;5010832;28;20049;-51
2021/04/03 05:08:50;;;;;;;12.55;5.40;;;;;;;3.13;66.28;95999.13;5010571;28;20431;-52
2021/04/03 05:11:16;;;;;;;14.68;5.43;;;;;;;2.93;67.21;96005.47;5011255;28;20052;-57
2021/04/03 05:13:43;;;;;;;12.38;5.50;;;;;;;2.90;67.45;96010.56;5010915;28;20050;-54
2021/04/03 05:16:09;;;;;;;12.68;5.60;;;;;;;3.01;67.70;96009.38;5011184;28;20054;-52
2021/04/03 05:18:36;;;;;;;10.27;5.45;;;;;;;2.87;67.83;96022.59;5011293;28;20085;-51
2021/04/03 05:21:03;;;;;;;13.57;7.10;;;;;;;2.75;68.65;96016.81;5023973;28;20115;-52
2021/04/03 05:23:30;;;;;;;11.75;5.30;;;;;;;2.87;68.17;96025.28;5030805;28;20060;-51
2021/04/03 05:25:57;;;;;;;10.27;4.40;;;;;;;2.73;67.81;96029.66;5029280;28;20644;-53
2021/04/03 05:28:23;;;;;;;11.15;4.60;;;;;;;2.62;67.09;96034.28;5010733;28;20049;-53
2021/04/03 05:30:49;;;;;;;7.88;4.38;;;;;;;2.84;66.73;96036.53;5010959;28;20195;-55
2021/04/03 05:33:16;;;;;;;7.38;4.35;;;;;;;2.73;65.94;96040.34;5011035;28;20466;-56
2021/04/03 05:35:42;;;;;;;10.90;4.97;;;;;;;2.72;66.32;96052.91;5010759;28;20626;-57
2021/04/03 05:38:09;;;;;;;7.75;4.43;;;;;;;2.97;65.15;96049.25;5009869;28;20050;-57
2021/04/03 05:40:35;;;;;;;12.25;4.75;;;;;;;2.70;65.48;96054.28;5010490;28;20170;-56
2021/04/03 05:43:03;;;;;;;11.27;4.35;;;;;;;2.87;64.77;96051.22;5010888;28;20117;-57
2021/04/03 05:45:36;;;;;;;9.23;3.90;;;;;;;2.96;63.88;96058.34;5009492;28;20048;-55
2021/04/03 05:48:03;;;;;;;7.95;3.17;;;;;;;2.79;63.03;96061.44;5010321;28;20085;-57
2021/04/03 05:50:32;;;;;;;8.52;3.47;;;;;;;2.73;62.76;96065.22;5009238;28;20050;-51
2021/04/03 05:52:59;;;;;;;7.35;2.95;;;;;;;2.33;64.11;96052.91;5010693;28;20049;-53
2021/04/03 05:55:26;;;;;;;9.02;3.17;;;;;;;2.45;63.88;96064.06;5010974;28;20132;-51
2021/04/03 05:57:52;;;;;;;7.18;3.20;;;;;;;2.46;64.20;96059.50;5009537;28;20054;-52
2021/04/03 06:00:19;;;;;;;8.70;3.25;;;;;;;2.70;63.81;96067.66;5009380;28;20077;-50
2021/04/03 06:02:47;;;;;;;6.63;3.35;;;;;;;2.83;62.91;96061.66;5013646;28;20058;-51
2021/04/03 06:05:14;;;;;;;8.18;3.47;;;;;;;2.77;63.28;96068.13;5014522;28;20041;-54
2021/04/03 06:07:40;;;;;;;9.18;3.92;;;;;;;2.74;63.17;96069.47;5017872;28;20061;-57
2021/04/03 06:10:10;;;;;;;6.88;3.33;;;;;;;2.85;62.84;96072.06;5032684;28;20076;-54
2021/04/03 06:12:47;;;;;;;7.68;3.40;;;;;;;2.83;62.73;96061.66;5032894;28;20057;-56
2021/04/03 06:15:15;;;;;;;7.15;3.20;;;;;;;2.83;62.57;96075.03;5033883;28;20054;-54
2021/04/03 06:17:45;;;;;;;8.13;3.30;;;;;;;2.75;62.96;96075.59;5028059;28;20462;-53
2021/04/03 06:20:13;;;;;;;6.07;2.97;;;;;;;2.83;62.41;96077.69;5025450;28;20129;-55
2021/04/03 06:22:45;;;;;;;7.13;3.33;;;;;;;2.66;63.16;96082.63;5033961;28;20046;-54
2021/04/03 06:25:12;;;;;;;10.43;3.10;;;;;;;2.71;63.48;96074.56;5034032;28;20061;-52
2021/04/03 06:27:39;;;;;;;4.68;2.17;;;;;;;2.69;62.74;96077.50;5026361;28;20049;-52
2021/04/03 06:30:34;;;;;;;7.70;3.45;;;;;;;2.74;63.08;96085.50;5001191;28;20049;-54
2021/04/03 06:33:18;;;;;;;5.43;2.90;;;;;;;2.78;63.01;96093.75;5032592;28;20048;-52
2021/04/03 06:36:03;;;;;;;6.68;3.15;;;;;;;2.69;63.69;96092.75;5020354;28;20050;-51
2021/04/03 06:38:29;;;;;;;7.75;3.25;;;;;;;2.88;63.69;96103.56;5013367;28;20136;-54
2021/04/03 06:41:19;;;;;;;9.23;3.25;;;;;;;3.11;62.55;96110.88;5012580;28;20113;-56
2021/04/03 06:44:09;;;;;;;11.30;3.33;;;;;;;3.01;63.05;96114.41;5019483;28;20072;-55
2021/04/03 06:46:41;;;;;;;;;;;;;;;3.06;62.33;96118.94;5031397;28;20525;-52
2021/04/03 06:49:09;;;;;;;13.40;3.30;;;;;;;2.98;62.46;96114.97;5032853;28;19928;-50
2021/04/03 06:51:36;;;;;;;5.10;3.03;;;;;;;3.02;62.52;96117.88;5034764;28;20135;-50
2021/04/03 06:54:05;;;;;;;8.80;3.03;;;;;;;3.07;62.45;96125.09;5043289;28;20424;-54
2021/04/03 06:56:35;;;;;;;9.68;3.40;;;;;;;3.19;62.09;96130.88;5031763;28;20045;-57
2021/04/03 06:59:11;;;;;;;7.50;3.15;;;;;;;3.11;63.40;96123.44;5032037;28;20144;-57
2021/04/03 07:01:49;;;;;;;5.72;3.13;;;;;;;3.29;61.83;96120.09;5024942;28;20053;-57
2021/04/03 07:04:18;;;;;;;8.77;3.30;;;;;;;3.34;62.09;96128.06;5030949;28;20457;-57
2021/04/03 07:06:45;;;;;;;8.73;3.75;;;;;;;3.59;61.22;96118.22;5016206;28;20058;-57
2021/04/03 07:09:12;;;;;;;7.85;3.65;;;;;;;3.59;60.57;96126.25;5016670;28;20058;-58
2021/04/03 07:11:40;;;;;;;5.93;3.33;;;;;;;3.90;60.40;96116.81;5033555;28;20061;-56
2021/04/03 07:14:07;;;;;;;8.23;3.38;;;;;;;3.94;59.20;96112.47;5032826;28;20061;-55
2021/04/03 07:16:34;;;;;;;6.10;2.67;;;;;;;3.39;60.84;96122.66;5023663;28;20077;-55
2021/04/03 07:19:04;;;;;;;6.63;2.70;;;;;;;3.56;60.54;96116.91;5012107;28;20062;-57
2021/04/03 07:21:31;;;;;;;7.63;3.15;;;;;;;3.92;59.54;96128.03;5017776;28;20041;-55
2021/04/03 07:23:59;;;;;;;8.63;3.30;;;;;;;3.93;59.32;96126.13;5015536;28;20055;-53
2021/04/03 07:26:26;;;;;;;8.88;3.42;;;;;;;4.07;58.53;96126.28;5017946;28;20191;-53
2021/04/03 07:28:53;;;;;;;4.70;3.42;;;;;;;3.80;59.24;96130.28;5012882;28;20061;-57
2021/04/03 07:31:44;;;;;;;6.18;3.47;;;;;;;3.71;59.79;96142.72;5028148;28;20474;-56
2021/04/03 07:34:11;;;;;;;6.85;3.45;;;;;;;3.74;60.25;96139.47;5021772;28;20081;-57
2021/04/03 07:36:39;;;;;;;6.28;2.90;;;;;;;3.56;60.42;96137.50;5015806;28;20048;-56
2021/04/03 07:39:37;;;;;;;7.28;3.53;;;;;;;3.91;59.42;96144.38;5016112;28;20476;-58
2021/04/03 07:42:05;;;;;;;7.40;3.40;;;;;;;3.97;58.52;96152.06;5013313;28;20464;-57
2021/04/03 07:44:36;;;;;;;6.80;3.13;;;;;;;4.05;58.67;96150.63;5013096;28;20116;-56
2021/04/03 07:47:22;;;;;;;8.65;3.97;;;;;;;4.17;57.93;96147.56;5013114;28;20053;-56
2021/04/03 07:49:49;;;;;;;9.75;3.38;;;;;;;4.17;57.54;96150.25;5027376;28;20122;-58
2021/04/03 07:52:16;;;;;;;8.40;3.65;;;;;;;4.28;57.36;96146.34;5040231;28;20111;-56
2021/04/03 07:54:42;;;;;;;7.97;3.33;;;;;;;4.57;56.68;96156.19;5041931;28;20070;-58
2021/04/03 07:57:10;;;;;;;9.35;3.78;;;;;;;4.28;58.30;96156.28;5025100;28;20121;-57
2021/04/03 07:59:42;;;;;;;5.45;3.33;;;;;;;4.35;58.23;96159.41;5022192;28;20045;-58
2021/04/03 08:02:17;;;;;;;8.23;3.83;;;;;;;4.56;57.15;96165.31;5050209;28;20468;-57
2021/04/03 08:04:44;;;;;;;6.70;3.53;;;;;;;4.31;57.10;96163.75;5018695;28;20191;-58
2021/04/03 08:07:11;;;;;;;6.55;3.67;;;;;;;4.42;56.59;96166.03;5016665;28;20073;-54
2021/04/03 08:09:38;;;;;;;7.88;3.60;;;;;;;4.35;56.72;96160.19;5038788;23;20049;-55
2021/04/03 08:12:06;;;;;;;7.90;3.42;;;;;;;4.68;56.59;96163.03;5031597;28;20108;-50
2021/04/03 08:14:35;;;;;;;7.22;2.92;;;;;;;4.79;55.31;96169.81;4999479;28;20491;-55
2021/04/03 08:17:04;;;;;;;7.22;3.08;;;;;;;4.85;53.83;96166.00;5023494;28;20438;-55
2021/04/03 08:19:36;;;;;;;6.53;3.30;;;;;;;4.50;53.98;96171.81;5012541;28;20525;-57
2021/04/03 08:22:08;;;;;;;7.90;3.22;;;;;;;4.26;55.14;96178.00;5012357;28;20057;-54
2021/04/03 08:24:35;;;;;;;10.35;4.13;;;;;;;4.38;55.90;96159.63;4988360;28;20053;-56
2021/04/03 08:27:02;;;;;;;8.02;3.47;;;;;;;4.49;55.05;96175.59;5010354;28;20084;-52
2021/04/03 08:29:32;;;;;;;7.60;3.10;;;;;;;4.51;53.39;96168.84;5012259;28;20060;-53
2021/04/03 08:32:01;;;;;;;6.25;2.80;;;;;;;4.39;53.46;96182.66;5008696;28;20073;-50
2021/04/03 08:34:28;;;;;;;8.48;4.07;;;;;;;4.59;53.33;96175.47;5011426;28;20057;-50
2021/04/03 08:36:55;;;;;;;8.40;4.03;;;;;;;4.90;53.31;96183.88;5008144;28;20049;-48
2021/04/03 08:39:24;;;;;;;7.10;3.60;;;;;;;5.07;52.61;96181.50;5001756;28;20474;-51
2021/04/03 08:41:53;;;;;;;7.93;3.55;;;;;;;5.31;52.53;96173.34;5010321;28;20140;-51
2021/04/03 08:44:23;;;;;;;7.25;3.40;;;;;;;5.44;51.17;96179.06;5009520;28;20066;-53
2021/04/03 08:46:59;;;;;;;10.52;3.90;;;;;;;5.24;52.60;96180.97;5010887;28;20054;-51
2021/04/03 08:49:29;;;;;;;8.57;4.38;;;;;;;5.55;51.16;96180.47;4997009;28;20049;-48
2021/04/03 08:51:56;;;;;;;7.07;3.08;;;;;;;4.98;51.48;96174.41;5010740;28;20061;-48
2021/04/03 08:54:22;;;;;;;9.05;3.50;;;;;;;5.03;50.66;96187.72;5012219;28;20508;-50
2021/04/03 08:56:49;;;;;;;6.15;3.38;;;;;;;4.95;50.05;96188.38;4997604;28;20500;-52
2021/04/03 08:59:20;;;;;;;8.13;3.70;;;;;;;5.12;50.25;96181.41;4998040;28;20050;-49
2021/04/03 09:01:52;;;;;;;5.40;3.25;;;;;;;5.20;50.07;96185.34;5005762;28;20434;-51
2021/04/03 09:04:20;;;;;;;6.75;3.35;;;;;;;5.79;48.85;96180.38;5007704;28;20558;-50
2021/04/03 09:06:54;;;;;;;6.05;3.10;;;;;;;6.09;46.62;96192.47;5007733;28;20511;-47
2021/04/03 09:09:23;;;;;;;9.60;3.63;;;;;;;6.00;46.77;96189.66;5008769;28;20053;-48
2021/04/03 09:11:57;;;;;;;6.28;3.05;;;;;;;5.85;47.45;96185.34;5011886;28;20108;-47
2021/04/03 09:14:28;;;;;;;12.23;4.28;;;;;;;6.27;47.62;96183.53;5008674;28;20060;-46
2021/04/03 09:16:56;;;;;;;6.55;3.33;;;;;;;6.11;48.47;96193.00;5011563;28;20046;-47
2021/04/03 09:19:23;;;;;;;8.50;3.45;;;;;;;5.83;48.59;96192.09;5011435;28;20467;-47
2021/04/03 09:21:50;;;;;;;9.43;3.80;;;;;;;6.30;48.21;96195.56;5010988;28;20116;-50
2021/04/03 09:24:35;;;;;;;7.18;3.83;;;;;;;6.37;48.56;96193.31;5010412;28;20060;-47
2021/04/03 09:27:16;;;;;;;4.68;2.63;;;;;;;6.08;47.31;96198.94;5012248;28;20060;-49
2021/04/03 09:29:45;;;;;;;7.68;3.42;;;;;;;5.63;48.42;96202.09;5013160;28;20065;-46
2021/04/03 09:32:13;;;;;;;8.93;3.28;;;;;;;5.95;48.42;96199.72;5007987;28;20057;-46
2021/04/03 09:34:40;;;;;;;5.45;3.30;;;;;;;5.94;49.23;96195.44;5013376;28;20053;-46
2021/04/03 09:37:21;;;;;;;8.43;3.10;;;;;;;6.07;48.13;96202.72;5016526;28;20058;-50
2021/04/03 09:39:51;;;;;;;5.82;3.10;;;;;;;6.15;47.30;96202.03;5015505;28;20169;-46
2021/04/03 09:42:28;;;;;;;6.63;2.60;;;;;;;5.52;45.28;96205.22;5013729;28;20058;-48
2021/04/03 09:44:59;;;;;;;4.93;2.85;;;;;;;5.23;46.78;96214.28;5014008;28;20062;-48
2021/04/03 09:47:27;;;;;;;4.45;2.33;;;;;;;5.31;47.75;96208.22;5014722;28;20133;-47
2021/04/03 09:49:54;;;;;;;6.00;2.83;;;;;;;5.35;48.36;96209.22;5023441;28;20091;-49
2021/04/03 09:52:21;;;;;;;7.07;3.35;;;;;;;5.70;48.67;96209.78;5010930;28;20046;-50
2021/04/03 09:54:48;;;;;;;7.90;3.47;;;;;;;5.93;48.33;96201.91;5013828;28;20044;-48
2021/04/03 09:57:15;;;;;;;7.22;3.33;;;;;;;5.81;48.77;96207.69;5013103;28;20137;-48
2021/04/03 09:59:43;;;;;;;5.70;2.97;;;;;;;5.90;49.14;96218.56;5013703;28;20060;-48
2021/04/03 10:02:13;;;;;;;7.38;3.80;;;;;;;5.72;48.33;96207.59;5009817;28;20049;-50
2021/04/03 10:04:40;;;;;;;5.85;2.75;;;;;;;5.72;47.25;96212.97;5014775;28;20179;-48
2021/04/03 10:07:06;;;;;;;5.75;2.63;;;;;;;5.32;46.91;96220.53;5011496;28;20038;-53
2021/04/03 10:09:33;;;;;;;8.93;2.40;;;;;;;5.81;46.64;96231.88;5015705;28;20593;-48
2021/04/03 10:11:59;;;;;;;5.15;2.88;;;;;;;5.98;47.29;96232.16;5016751;28;20130;-47
2021/04/03 10:14:27;;;;;;;5.05;2.22;;;;;;;5.72;47.79;96229.06;5013013;28;20057;-48
2021/04/03 10:17:02;;;;;;;4.50;2.78;;;;;;;5.78;48.25;96227.88;5015757;28;20159;-48
2021/04/03 10:19:28;;;;;;;7.13;2.80;;;;;;;5.67;48.31;96223.78;5015056;28;20061;-47
2021/04/03 10:21:55;;;;;;;8.25;2.60;;;;;;;5.85;47.98;96236.38;5012323;28;20077;-49
2021/04/03 10:24:21;;;;;;;4.15;2.25;;;;;;;5.91;45.75;96229.00;5012760;28;20068;-48
2021/04/03 10:26:48;;;;;;;4.15;2.40;;;;;;;6.22;45.12;96229.31;5009771;28;20462;-51
2021/04/03 10:29:14;;;;;;;6.53;2.20;;;;;;;6.08;43.73;96228.50;5004799;28;20054;-49
2021/04/03 10:31:41;;;;;;;6.45;2.60;;;;;;;5.83;44.10;96225.13;5012997;28;20054;-48
2021/04/03 10:34:08;;;;;;;7.63;2.38;;;;;;;6.26;43.52;96224.13;5008616;28;20061;-48
2021/04/03 10:36:34;;;;;;;4.63;2.08;;;;;;;6.25;42.36;96226.03;5006230;28;20068;-48
2021/04/03 10:39:01;;;;;;;4.68;1.85;;;;;;;5.88;43.53;96226.13;5005029;28;20046;-44
2021/04/03 10:41:27;;;;;;;4.30;2.42;;;;;;;6.20;43.24;96219.94;4995180;28;20158;-45
2021/04/03 10:43:54;;;;;;;4.65;2.20;;;;;;;6.53;42.35;96234.91;5007823;28;20077;-46
2021/04/03 10:46:20;;;;;;;5.75;2.03;;;;;;;6.58;42.31;96234.00;5011183;28;20046;-48
2021/04/03 10:48:47;;;;;;;4.15;2.22;;;;;;;6.69;42.03;96229.22;5001418;28;20108;-47
2021/04/03 10:51:13;;;;;;;4.80;2.17;;;;;;;7.13;40.09;96238.53;5007270;28;20057;-47
2021/04/03 10:53:40;;;;;;;5.40;2.53;;;;;;;7.45;40.24;96241.03;5012907;28;20073;-52
2021/04/03 10:56:06;;;;;;;5.30;2.30;;;;;;;6.29;42.74;96236.97;5006974;28;20050;-50
2021/04/03 10:58:33;;;;;;;3.92;2.45;;;;;;;6.04;44.56;96230.16;5005187;28;20054;-49
2021/04/03 11:01:00;;;;;;;5.40;2.50;;;;;;;6.44;44.96;96239.38;4996326;28;20054;-51
2021/04/03 11:03:27;;;;;;;5.18;3.03;;;;;;;6.26;45.94;96233.00;5006837;28;20046;-50
2021/04/03 11:05:53;;;;;;;5.03;2.65;;;;;;;6.40;45.64;96243.78;5005811;28;20050;-51
2021/04/03 11:08:23;;;;;;;6.03;2.65;;;;;;;6.48;44.87;96235.00;4993964;28;20125;-49
2021/04/03 11:10:49;;;;;;;5.25;2.65;;;;;;;7.16;45.39;96227.97;4999820;28;20045;-52
2021/04/03 11:13:16;;;;;;;4.50;2.20;;;;;;;7.54;42.95;96241.13;5004939;28;20065;-48
2021/04/03 11:15:44;;;;;;;5.38;2.40;;;;;;;6.56;43.38;96233.50;5004872;28;20049;-48
2021/04/03 11:18:11;;;;;;;6.55;2.60;;;;;;;6.40;43.64;96234.88;5011808;28;20045;-52
2021/04/03 11:20:38;;;;;;;5.72;2.50;;;;;;;6.31;44.22;96235.59;5006648;28;20042;-46
2021/04/03 11:23:05;;;;;;;5.63;2.70;;;;;;;6.19;43.90;96229.91;5012688;28;20054;-47
2021/04/03 11:25:33;;;;;;;6.35;2.40;;;;;;;6.49;43.90;96241.16;5009226;28;20065;-54
2021/04/03 11:28:00;;;;;;;4.60;2.55;;;;;;;6.92;43.56;96238.97;5010849;28;20101;-51
2021/04/03 11:30:27;;;;;;;4.72;2.33;;;;;;;6.80;43.97;96233.31;5003018;28;20069;-53
2021/04/03 11:32:54;;;;;;;8.48;2.95;;;;;;;6.55;43.90;96238.09;5010332;28;20341;-47
2021/04/03 11:35:22;;;;;;;5.70;2.78;;;;;;;6.69;44.10;96235.38;5011734;28;20050;-50
2021/04/03 11:37:50;;;;;;;4.93;2.88;;;;;;;6.84;43.90;96245.06;4996953;28;20054;-51
2021/04/03 11:40:17;;;;;;;7.32;2.72;;;;;;;6.88;43.49;96239.88;4999652;28;20058;-48
2021/04/03 11:42:45;;;;;;;5.15;2.30;;;;;;;6.85;42.82;96237.78;5005438;28;20046;-46
2021/04/03 11:45:13;;;;;;;5.07;2.42;;;;;;;6.77;41.95;96237.38;5010810;28;20057;-47
2021/04/03 11:47:39;;;;;;;5.07;2.10;;;;;;;7.22;42.67;96221.38;4992544;28;20054;-49
2021/04/03 11:50:07;;;;;;;4.40;2.30;;;;;;;7.25;41.59;96219.97;4992651;28;20051;-46
2021/04/03 11:52:36;;;;;;;5.10;2.38;;;;;;;7.55;40.24;96223.06;4993077;28;20054;-52
2021/04/03 11:55:05;;;;;;;4.60;2.03;;;;;;;8.95;38.90;96218.06;4992296;28;20077;-53